createdAt,value
2018-07-26T00:00:24.173Z,1008.02
2018-07-26T00:01:24.164Z,1008.04
2018-07-26T00:02:24.151Z,1008.04
2018-07-26T00:03:24.162Z,1008.03
2018-07-26T00:04:24.141Z,1008.03
2018-07-26T00:05:24.119Z,1008.02
2018-07-26T00:06:24.119Z,1008.00
2018-07-26T00:07:24.057Z,1008.04
2018-07-26T00:08:24.132Z,1008.00
2018-07-26T00:09:24.084Z,1008.02
2018-07-26T00:10:24.071Z,1008.01
2018-07-26T00:11:24.054Z,1008.00
2018-07-26T00:12:24.151Z,1007.99
2018-07-26T00:13:24.061Z,1007.94
2018-07-26T00:14:24.019Z,1007.95
2018-07-26T00:15:24.010Z,1007.93
2018-07-26T00:16:24.152Z,1007.96
2018-07-26T00:17:23.996Z,1007.93
2018-07-26T00:18:24.115Z,1007.95
2018-07-26T00:19:23.984Z,1007.96
2018-07-26T00:20:23.958Z,1007.97
2018-07-26T00:21:23.951Z,1008.01
2018-07-26T00:22:24.013Z,1008.03
2018-07-26T00:23:23.962Z,1008.02
2018-07-26T00:24:23.911Z,1008.05
2018-07-26T00:25:23.901Z,1008.05
2018-07-26T00:26:23.894Z,1008.04
2018-07-26T00:27:23.885Z,1008.09
2018-07-26T00:28:23.917Z,1008.07
2018-07-26T00:29:23.858Z,1008.12
2018-07-26T00:30:23.855Z,1008.06
2018-07-26T00:31:23.836Z,1008.06
2018-07-26T00:32:23.832Z,1008.02
2018-07-26T00:33:23.845Z,1008.07
2018-07-26T00:34:23.807Z,1008.05
2018-07-26T00:35:23.790Z,1008.05
2018-07-26T00:36:23.791Z,1008.05
2018-07-26T00:37:23.734Z,1008.04
2018-07-26T00:38:23.798Z,1008.05
2018-07-26T00:39:23.750Z,1008.09
2018-07-26T00:40:23.746Z,1008.11
2018-07-26T00:41:23.825Z,1008.11
2018-07-26T00:42:23.724Z,1008.12
2018-07-26T00:43:23.730Z,1008.12
2018-07-26T00:44:23.711Z,1008.11
2018-07-26T00:45:23.640Z,1008.08
2018-07-26T00:46:23.671Z,1008.07
2018-07-26T00:47:23.663Z,1008.04
2018-07-26T00:48:23.679Z,1008.02
2018-07-26T00:49:23.643Z,1008.02
2018-07-26T00:50:23.635Z,1008.00
2018-07-26T00:51:23.630Z,1007.99
2018-07-26T00:52:23.611Z,1008.03
2018-07-26T00:53:23.624Z,1008.01
2018-07-26T00:54:23.547Z,1008.03
2018-07-26T00:55:23.599Z,1008.03
2018-07-26T00:56:30.715Z,1008.06
2018-07-26T00:57:23.566Z,1008.10
2018-07-26T00:58:23.493Z,1008.08
2018-07-26T00:59:23.561Z,1008.10
2018-07-26T01:00:23.480Z,1008.11
2018-07-26T01:01:23.512Z,1008.18
2018-07-26T01:02:23.509Z,1008.18
2018-07-26T01:03:23.496Z,1008.20
2018-07-26T01:04:23.508Z,1008.22
2018-07-26T01:05:23.436Z,1008.23
2018-07-26T01:06:23.483Z,1008.21
2018-07-26T01:07:23.454Z,1008.23
2018-07-26T01:08:23.442Z,1008.24
2018-07-26T01:09:23.592Z,1008.22
2018-07-26T01:10:23.413Z,1008.20
2018-07-26T01:11:23.525Z,1008.23
2018-07-26T01:12:23.359Z,1008.24
2018-07-26T01:13:23.384Z,1008.23
2018-07-26T01:14:23.355Z,1008.19
2018-07-26T01:15:23.342Z,1008.20
2018-07-26T01:16:23.349Z,1008.22
2018-07-26T01:17:23.342Z,1008.22
2018-07-26T01:18:23.350Z,1008.23
2018-07-26T01:19:23.447Z,1008.22
2018-07-26T01:20:23.307Z,1008.22
2018-07-26T01:21:23.308Z,1008.19
2018-07-26T01:22:23.294Z,1008.20
2018-07-26T01:23:23.288Z,1008.16
2018-07-26T01:24:23.301Z,1008.18
2018-07-26T01:25:23.258Z,1008.18
2018-07-26T01:26:23.243Z,1008.17
2018-07-26T01:27:23.239Z,1008.16
2018-07-26T01:28:23.216Z,1008.15
2018-07-26T01:29:23.283Z,1008.12
2018-07-26T01:30:23.197Z,1008.13
2018-07-26T01:31:23.197Z,1008.12
2018-07-26T01:32:23.184Z,1008.11
2018-07-26T01:33:23.162Z,1008.12
2018-07-26T01:34:23.178Z,1008.12
2018-07-26T01:35:23.168Z,1008.13
2018-07-26T01:36:23.149Z,1008.14
2018-07-26T01:37:23.127Z,1008.09
2018-07-26T01:38:23.108Z,1008.10
2018-07-26T01:39:23.130Z,1008.11
2018-07-26T01:40:23.092Z,1008.09
2018-07-26T01:41:23.089Z,1008.12
2018-07-26T01:42:23.070Z,1008.13
2018-07-26T01:43:23.060Z,1008.11
2018-07-26T01:44:23.042Z,1008.14
2018-07-26T01:45:23.033Z,1008.10
2018-07-26T01:46:23.023Z,1008.18
2018-07-26T01:47:23.020Z,1008.11
2018-07-26T01:48:23.007Z,1008.21
2018-07-26T01:49:23.026Z,1008.20
2018-07-26T01:50:22.981Z,1008.22
2018-07-26T01:51:22.981Z,1008.19
2018-07-26T01:52:22.959Z,1008.20
2018-07-26T01:53:22.959Z,1008.22
2018-07-26T01:54:22.965Z,1008.20
2018-07-26T01:55:22.928Z,1008.16
2018-07-26T01:56:22.918Z,1008.14
2018-07-26T01:57:22.905Z,1008.15
2018-07-26T01:58:22.895Z,1008.17
2018-07-26T01:59:22.924Z,1008.18
2018-07-26T02:00:22.876Z,1008.13
2018-07-26T02:01:22.877Z,1008.10
2018-07-26T02:02:22.848Z,1008.12
2018-07-26T02:03:22.848Z,1008.09
2018-07-26T02:04:22.858Z,1008.13
2018-07-26T02:05:22.832Z,1008.12
2018-07-26T02:06:22.809Z,1008.12
2018-07-26T02:07:22.796Z,1008.06
2018-07-26T02:08:22.867Z,1008.01
2018-07-26T02:09:22.803Z,1008.04
2018-07-26T02:10:22.778Z,1008.03
2018-07-26T02:11:22.762Z,1008.00
2018-07-26T02:12:22.706Z,1007.99
2018-07-26T02:13:22.733Z,1008.04
2018-07-26T02:14:22.812Z,1008.03
2018-07-26T02:15:22.730Z,1008.06
2018-07-26T02:16:22.700Z,1008.06
2018-07-26T02:17:22.700Z,1008.09
2018-07-26T02:18:22.640Z,1008.11
2018-07-26T02:19:22.692Z,1008.10
2018-07-26T02:20:22.660Z,1008.03
2018-07-26T02:21:22.658Z,1008.02
2018-07-26T02:22:22.634Z,1008.05
2018-07-26T02:23:22.621Z,1008.01
2018-07-26T02:24:22.667Z,1008.03
2018-07-26T02:25:22.654Z,1008.05
2018-07-26T02:26:22.605Z,1008.05
2018-07-26T02:27:22.579Z,1008.03
2018-07-26T02:28:22.528Z,1008.07
2018-07-26T02:29:22.591Z,1008.10
2018-07-26T02:30:22.564Z,1008.11
2018-07-26T02:31:22.544Z,1008.09
2018-07-26T02:32:22.529Z,1008.06
2018-07-26T02:33:22.519Z,1008.07
2018-07-26T02:34:22.550Z,1008.02
2018-07-26T02:35:22.493Z,1008.09
2018-07-26T02:36:22.500Z,1008.05
2018-07-26T02:37:22.493Z,1008.05
2018-07-26T02:38:22.464Z,1008.01
2018-07-26T02:39:22.406Z,1008.03
2018-07-26T02:40:22.420Z,1008.02
2018-07-26T02:41:22.427Z,1008.04
2018-07-26T02:42:22.414Z,1008.06
2018-07-26T02:43:22.414Z,1008.05
2018-07-26T02:44:22.402Z,1008.04
2018-07-26T02:45:22.411Z,1008.05
2018-07-26T02:46:22.376Z,1008.10
2018-07-26T02:47:22.365Z,1008.07
2018-07-26T02:48:22.363Z,1008.04
2018-07-26T02:49:22.300Z,1008.07
2018-07-26T02:50:22.363Z,1008.08
2018-07-26T02:51:22.279Z,1008.06
2018-07-26T02:52:22.315Z,1008.08
2018-07-26T02:53:22.304Z,1008.05
2018-07-26T02:54:22.290Z,1008.03
2018-07-26T02:55:22.301Z,1008.06
2018-07-26T02:56:22.280Z,1008.08
2018-07-26T02:57:22.258Z,1008.03
2018-07-26T02:58:22.257Z,1008.09
2018-07-26T02:59:22.235Z,1008.07
2018-07-26T03:00:22.248Z,1008.12
2018-07-26T03:01:22.248Z,1008.13
2018-07-26T03:02:22.200Z,1008.12
2018-07-26T03:03:22.197Z,1008.14
2018-07-26T03:04:22.189Z,1008.10
2018-07-26T03:05:22.178Z,1008.11
2018-07-26T03:06:22.167Z,1008.13
2018-07-26T03:07:22.227Z,1008.19
2018-07-26T03:08:22.137Z,1008.11
2018-07-26T03:09:22.127Z,1008.12
2018-07-26T03:10:22.146Z,1008.10
2018-07-26T03:11:22.108Z,1008.14
2018-07-26T03:12:22.101Z,1008.13
2018-07-26T03:13:22.091Z,1008.09
2018-07-26T03:14:22.073Z,1008.10
2018-07-26T03:15:22.087Z,1008.13
2018-07-26T03:16:22.055Z,1008.07
2018-07-26T03:17:22.052Z,1008.07
2018-07-26T03:18:22.030Z,1008.09
2018-07-26T03:19:22.018Z,1008.08
2018-07-26T03:20:22.027Z,1008.07
2018-07-26T03:21:21.996Z,1008.10
2018-07-26T03:22:21.981Z,1008.08
2018-07-26T03:23:21.987Z,1008.07
2018-07-26T03:24:21.959Z,1008.18
2018-07-26T03:25:21.985Z,1008.12
2018-07-26T03:26:21.940Z,1008.17
2018-07-26T03:27:21.933Z,1008.22
2018-07-26T03:28:21.924Z,1008.24
2018-07-26T03:29:21.908Z,1008.26
2018-07-26T03:30:21.901Z,1008.27
2018-07-26T03:31:21.930Z,1008.26
2018-07-26T03:32:21.879Z,1008.24
2018-07-26T03:33:21.866Z,1008.23
2018-07-26T03:34:21.864Z,1008.23
2018-07-26T03:35:21.842Z,1008.27
2018-07-26T03:36:21.866Z,1008.28
2018-07-26T03:37:21.825Z,1008.28
2018-07-26T03:38:21.806Z,1008.28
2018-07-26T03:39:21.810Z,1008.28
2018-07-26T03:40:21.790Z,1008.31
2018-07-26T03:41:21.803Z,1008.29
2018-07-26T03:42:21.774Z,1008.36
2018-07-26T03:43:21.761Z,1008.33
2018-07-26T03:44:21.748Z,1008.36
2018-07-26T03:45:21.733Z,1008.35
2018-07-26T03:46:21.755Z,1008.36
2018-07-26T03:47:21.714Z,1008.35
2018-07-26T03:48:21.707Z,1008.33
2018-07-26T03:49:21.695Z,1008.37
2018-07-26T03:50:21.686Z,1008.38
2018-07-26T03:51:21.709Z,1008.41
2018-07-26T03:52:21.665Z,1008.40
2018-07-26T03:53:21.645Z,1008.37
2018-07-26T03:54:21.639Z,1008.37
2018-07-26T03:55:21.629Z,1008.42
2018-07-26T03:56:21.641Z,1008.41
2018-07-26T03:57:21.607Z,1008.41
2018-07-26T03:58:21.633Z,1008.43
2018-07-26T03:59:21.603Z,1008.39
2018-07-26T04:00:21.538Z,1008.39
2018-07-26T04:01:21.584Z,1008.42
2018-07-26T04:02:21.552Z,1008.42
2018-07-26T04:03:21.594Z,1008.42
2018-07-26T04:04:21.633Z,1008.44
2018-07-26T04:05:21.520Z,1008.46
2018-07-26T04:06:21.533Z,1008.45
2018-07-26T04:07:21.500Z,1008.42
2018-07-26T04:08:21.487Z,1008.44
2018-07-26T04:09:21.476Z,1008.40
2018-07-26T04:10:21.479Z,1008.34
2018-07-26T04:11:21.476Z,1008.39
2018-07-26T04:12:21.440Z,1008.34
2018-07-26T04:13:21.433Z,1008.33
2018-07-26T04:14:21.437Z,1008.38
2018-07-26T04:15:21.418Z,1008.41
2018-07-26T04:16:21.421Z,1008.33
2018-07-26T04:17:21.392Z,1008.33
2018-07-26T04:18:21.379Z,1008.30
2018-07-26T04:19:21.369Z,1008.36
2018-07-26T04:20:21.315Z,1008.33
2018-07-26T04:21:21.383Z,1008.33
2018-07-26T04:22:21.335Z,1008.33
2018-07-26T04:23:21.325Z,1008.36
2018-07-26T04:24:21.276Z,1008.31
2018-07-26T04:25:21.294Z,1008.29
2018-07-26T04:26:21.405Z,1008.32
2018-07-26T04:27:21.256Z,1008.29
2018-07-26T04:28:21.271Z,1008.34
2018-07-26T04:29:21.261Z,1008.33
2018-07-26T04:30:21.255Z,1008.32
2018-07-26T04:31:21.265Z,1008.31
2018-07-26T04:32:21.245Z,1008.28
2018-07-26T04:33:21.216Z,1008.30
2018-07-26T04:34:21.248Z,1008.30
2018-07-26T04:35:21.200Z,1008.24
2018-07-26T04:36:21.216Z,1008.24
2018-07-26T04:37:21.178Z,1008.22
2018-07-26T04:38:21.156Z,1008.26
2018-07-26T04:39:21.148Z,1008.21
2018-07-26T04:40:21.146Z,1008.23
2018-07-26T04:41:21.156Z,1008.21
2018-07-26T04:42:21.114Z,1008.21
2018-07-26T04:43:21.065Z,1008.22
2018-07-26T04:44:21.102Z,1008.17
2018-07-26T04:45:21.082Z,1008.18
2018-07-26T04:46:21.105Z,1008.21
2018-07-26T04:47:21.086Z,1008.18
2018-07-26T04:48:21.052Z,1008.21
2018-07-26T04:49:21.056Z,1008.20
2018-07-26T04:50:21.040Z,1008.26
2018-07-26T04:51:21.056Z,1008.24
2018-07-26T04:52:21.017Z,1008.21
2018-07-26T04:53:21.005Z,1008.21
2018-07-26T04:54:20.986Z,1008.16
2018-07-26T04:55:20.934Z,1008.17
2018-07-26T04:56:20.963Z,1008.19
2018-07-26T04:57:20.964Z,1008.23
2018-07-26T04:58:20.973Z,1008.18
2018-07-26T04:59:20.938Z,1008.15
2018-07-26T05:00:20.928Z,1008.18
2018-07-26T05:01:20.918Z,1008.24
2018-07-26T05:02:20.935Z,1008.23
2018-07-26T05:03:20.909Z,1008.21
2018-07-26T05:04:20.886Z,1008.20
2018-07-26T05:05:20.877Z,1008.27
2018-07-26T05:06:20.861Z,1008.25
2018-07-26T05:07:20.982Z,1008.29
2018-07-26T05:08:20.841Z,1008.25
2018-07-26T05:09:20.847Z,1008.29
2018-07-26T05:10:20.819Z,1008.28
2018-07-26T05:11:20.812Z,1008.27
2018-07-26T05:12:20.822Z,1008.26
2018-07-26T05:13:20.807Z,1008.31
2018-07-26T05:14:20.774Z,1008.32
2018-07-26T05:15:20.760Z,1008.30
2018-07-26T05:16:20.751Z,1008.35
2018-07-26T05:17:20.838Z,1008.31
2018-07-26T05:18:20.776Z,1008.35
2018-07-26T05:19:20.735Z,1008.31
2018-07-26T05:20:20.710Z,1008.28
2018-07-26T05:21:20.709Z,1008.33
2018-07-26T05:22:20.716Z,1008.35
2018-07-26T05:23:20.694Z,1008.32
2018-07-26T05:24:20.618Z,1008.29
2018-07-26T05:25:20.657Z,1008.32
2018-07-26T05:26:20.647Z,1008.31
2018-07-26T05:27:20.689Z,1008.31
2018-07-26T05:28:20.622Z,1008.29
2018-07-26T05:29:20.612Z,1008.28
2018-07-26T05:30:20.599Z,1008.28
2018-07-26T05:31:20.590Z,1008.34
2018-07-26T05:32:20.610Z,1008.31
2018-07-26T05:33:20.568Z,1008.31
2018-07-26T05:34:20.558Z,1008.34
2018-07-26T05:35:20.552Z,1008.32
2018-07-26T05:36:20.539Z,1008.39
2018-07-26T05:37:20.771Z,1008.34
2018-07-26T05:38:20.542Z,1008.34
2018-07-26T05:39:20.505Z,1008.33
2018-07-26T05:40:20.513Z,1008.33
2018-07-26T05:41:20.481Z,1008.34
2018-07-26T05:42:20.494Z,1008.32
2018-07-26T05:43:20.460Z,1008.32
2018-07-26T05:44:20.453Z,1008.34
2018-07-26T05:45:20.433Z,1008.37
2018-07-26T05:46:20.388Z,1008.37
2018-07-26T05:47:20.452Z,1008.35
2018-07-26T05:48:20.411Z,1008.36
2018-07-26T05:49:20.405Z,1008.42
2018-07-26T05:50:20.382Z,1008.36
2018-07-26T05:51:20.369Z,1008.35
2018-07-26T05:52:20.398Z,1008.33
2018-07-26T05:53:20.363Z,1008.37
2018-07-26T05:54:20.347Z,1008.34
2018-07-26T05:55:20.331Z,1008.38
2018-07-26T05:56:20.570Z,1008.37
2018-07-26T05:57:20.340Z,1008.42
2018-07-26T05:58:20.298Z,1008.36
2018-07-26T05:59:20.292Z,1008.40
2018-07-26T06:00:20.247Z,1008.41
2018-07-26T06:01:20.272Z,1008.45
2018-07-26T06:02:20.283Z,1008.45
2018-07-26T06:03:20.258Z,1008.46
2018-07-26T06:04:20.232Z,1008.48
2018-07-26T06:05:20.226Z,1008.47
2018-07-26T06:06:20.229Z,1008.49
2018-07-26T06:07:20.226Z,1008.46
2018-07-26T06:08:20.200Z,1008.51
2018-07-26T06:09:20.175Z,1008.56
2018-07-26T06:10:20.178Z,1008.55
2018-07-26T06:11:20.159Z,1008.54
2018-07-26T06:12:20.255Z,1008.54
2018-07-26T06:13:20.136Z,1008.56
2018-07-26T06:14:20.136Z,1008.58
2018-07-26T06:15:20.114Z,1008.54
2018-07-26T06:16:20.114Z,1008.55
2018-07-26T06:17:20.131Z,1008.59
2018-07-26T06:18:20.048Z,1008.56
2018-07-26T06:19:20.076Z,1008.62
2018-07-26T06:20:20.061Z,1008.53
2018-07-26T06:21:20.066Z,1008.54
2018-07-26T06:22:20.075Z,1008.56
2018-07-26T06:23:20.032Z,1008.57
2018-07-26T06:24:20.038Z,1008.59
2018-07-26T06:25:20.009Z,1008.61
2018-07-26T06:26:19.999Z,1008.64
2018-07-26T06:27:20.016Z,1008.61
2018-07-26T06:28:20.015Z,1008.67
2018-07-26T06:29:19.970Z,1008.65
2018-07-26T06:30:19.973Z,1008.72
2018-07-26T06:31:19.945Z,1008.75
2018-07-26T06:32:19.957Z,1008.72
2018-07-26T06:33:19.976Z,1008.69
2018-07-26T06:34:19.930Z,1008.67
2018-07-26T06:35:19.909Z,1008.71
2018-07-26T06:36:19.898Z,1008.63
2018-07-26T06:37:19.882Z,1008.67
2018-07-26T06:38:19.894Z,1008.65
2018-07-26T06:39:19.816Z,1008.68
2018-07-26T06:40:19.858Z,1008.74
2018-07-26T06:41:19.850Z,1008.73
2018-07-26T06:42:19.853Z,1008.71
2018-07-26T06:43:19.887Z,1008.71
2018-07-26T06:44:19.813Z,1008.67
2018-07-26T06:45:19.805Z,1008.61
2018-07-26T06:46:19.796Z,1008.60
2018-07-26T06:47:19.789Z,1008.62
2018-07-26T06:48:19.812Z,1008.65
2018-07-26T06:49:19.763Z,1008.67
2018-07-26T06:50:19.760Z,1008.66
2018-07-26T06:51:19.751Z,1008.70
2018-07-26T06:52:19.731Z,1008.69
2018-07-26T06:53:19.709Z,1008.62
2018-07-26T06:54:19.709Z,1008.67
2018-07-26T06:55:19.832Z,1008.74
2018-07-26T06:56:19.693Z,1008.73
2018-07-26T06:57:19.686Z,1008.72
2018-07-26T06:58:19.693Z,1008.74
2018-07-26T06:59:19.622Z,1008.74
2018-07-26T07:00:19.680Z,1008.70
2018-07-26T07:01:19.644Z,1008.69
2018-07-26T07:02:19.631Z,1008.69
2018-07-26T07:03:19.637Z,1008.71
2018-07-26T07:04:19.605Z,1008.70
2018-07-26T07:05:19.555Z,1008.64
2018-07-26T07:06:19.594Z,1008.64
2018-07-26T07:07:19.587Z,1008.63
2018-07-26T07:08:19.596Z,1008.63
2018-07-26T07:09:19.519Z,1008.63
2018-07-26T07:10:19.551Z,1008.61
2018-07-26T07:11:19.545Z,1008.65
2018-07-26T07:12:19.535Z,1008.62
2018-07-26T07:13:19.551Z,1008.63
2018-07-26T07:14:19.513Z,1008.63
2018-07-26T07:15:19.500Z,1008.62
2018-07-26T07:16:19.494Z,1008.64
2018-07-26T07:17:19.475Z,1008.59
2018-07-26T07:18:19.504Z,1008.60
2018-07-26T07:19:19.478Z,1008.60
2018-07-26T07:20:19.457Z,1008.60
2018-07-26T07:21:19.439Z,1008.61
2018-07-26T07:22:19.425Z,1008.59
2018-07-26T07:23:19.453Z,1008.57
2018-07-26T07:24:19.415Z,1008.62
2018-07-26T07:25:19.357Z,1008.62
2018-07-26T07:26:19.351Z,1008.62
2018-07-26T07:27:19.382Z,1008.62
2018-07-26T07:28:19.411Z,1008.60
2018-07-26T07:29:19.358Z,1008.58
2018-07-26T07:30:19.356Z,1008.57
2018-07-26T07:31:19.347Z,1008.63
2018-07-26T07:32:19.332Z,1008.62
2018-07-26T07:33:19.315Z,1008.62
2018-07-26T07:34:19.312Z,1008.57
2018-07-26T07:35:19.319Z,1008.59
2018-07-26T07:36:19.260Z,1008.58
2018-07-26T07:37:19.280Z,1008.63
2018-07-26T07:38:19.301Z,1008.61
2018-07-26T07:39:19.264Z,1008.61
2018-07-26T07:40:19.258Z,1008.62
2018-07-26T07:41:19.248Z,1008.63
2018-07-26T07:42:19.248Z,1008.62
2018-07-26T07:43:19.251Z,1008.60
2018-07-26T07:44:19.224Z,1008.57
2018-07-26T07:45:19.207Z,1008.57
2018-07-26T07:46:19.163Z,1008.56
2018-07-26T07:47:19.262Z,1008.53
2018-07-26T07:48:19.306Z,1008.55
2018-07-26T07:49:19.171Z,1008.53
2018-07-26T07:50:19.159Z,1008.53
2018-07-26T07:51:19.144Z,1008.53
2018-07-26T07:52:19.090Z,1008.52
2018-07-26T07:53:19.152Z,1008.58
2018-07-26T07:54:19.120Z,1008.57
2018-07-26T07:55:19.063Z,1008.56
2018-07-26T07:56:19.058Z,1008.52
2018-07-26T07:57:19.104Z,1008.53
2018-07-26T07:58:19.122Z,1008.54
2018-07-26T07:59:19.071Z,1008.52
2018-07-26T08:00:19.062Z,1008.50
2018-07-26T08:01:19.051Z,1008.43
2018-07-26T08:02:19.051Z,1008.43
2018-07-26T08:03:19.058Z,1008.44
2018-07-26T08:04:19.019Z,1008.47
2018-07-26T08:05:19.060Z,1008.46
2018-07-26T08:06:19.003Z,1008.46
2018-07-26T08:07:18.996Z,1008.45
2018-07-26T08:08:19.010Z,1008.44
2018-07-26T08:09:18.975Z,1008.52
2018-07-26T08:10:18.965Z,1008.47
2018-07-26T08:11:18.970Z,1008.49
2018-07-26T08:12:18.943Z,1008.47
2018-07-26T08:13:18.962Z,1008.46
2018-07-26T08:14:18.884Z,1008.46
2018-07-26T08:15:18.918Z,1008.42
2018-07-26T08:16:18.913Z,1008.44
2018-07-26T08:17:18.891Z,1008.44
2018-07-26T08:18:18.917Z,1008.44
2018-07-26T08:19:18.875Z,1008.41
2018-07-26T08:20:18.872Z,1008.44
2018-07-26T08:21:18.878Z,1008.43
2018-07-26T08:22:18.859Z,1008.44
2018-07-26T08:23:18.862Z,1008.46
2018-07-26T08:24:18.823Z,1008.47
2018-07-26T08:25:18.822Z,1008.43
2018-07-26T08:26:18.807Z,1008.45
2018-07-26T08:27:18.797Z,1008.41
2018-07-26T08:28:18.826Z,1008.41
2018-07-26T08:29:18.832Z,1008.37
2018-07-26T08:30:18.769Z,1008.39
2018-07-26T08:31:18.759Z,1008.43
2018-07-26T08:32:18.757Z,1008.42
2018-07-26T08:33:18.756Z,1008.43
2018-07-26T08:34:18.762Z,1008.41
2018-07-26T08:35:18.733Z,1008.40
2018-07-26T08:36:18.712Z,1008.39
2018-07-26T08:37:18.718Z,1008.39
2018-07-26T08:38:18.692Z,1008.37
2018-07-26T08:39:18.855Z,1008.35
2018-07-26T08:40:18.679Z,1008.33
2018-07-26T08:41:18.628Z,1008.33
2018-07-26T08:42:18.660Z,1008.38
2018-07-26T08:43:18.647Z,1008.39
2018-07-26T08:44:18.670Z,1008.32
2018-07-26T08:45:18.749Z,1008.30
2018-07-26T08:46:18.615Z,1008.29
2018-07-26T08:47:18.618Z,1008.31
2018-07-26T08:48:18.627Z,1008.32
2018-07-26T08:49:18.679Z,1008.28
2018-07-26T08:50:18.577Z,1008.23
2018-07-26T08:51:18.535Z,1008.30
2018-07-26T08:52:18.597Z,1008.29
2018-07-26T08:53:18.554Z,1008.25
2018-07-26T08:54:18.589Z,1008.24
2018-07-26T08:55:18.558Z,1008.23
2018-07-26T08:56:18.513Z,1008.19
2018-07-26T08:57:18.507Z,1008.17
2018-07-26T08:58:18.504Z,1008.20
2018-07-26T08:59:18.517Z,1008.15
2018-07-26T09:00:18.471Z,1008.17
2018-07-26T09:01:18.468Z,1008.16
2018-07-26T09:02:18.478Z,1008.15
2018-07-26T09:03:18.445Z,1008.10
2018-07-26T09:04:18.468Z,1008.12
2018-07-26T09:05:18.433Z,1008.13
2018-07-26T09:06:18.429Z,1008.15
2018-07-26T09:07:18.403Z,1008.08
2018-07-26T09:08:18.404Z,1008.05
2018-07-26T09:09:18.416Z,1008.08
2018-07-26T09:10:18.378Z,1008.05
2018-07-26T09:11:18.374Z,1008.07
2018-07-26T09:12:18.362Z,1008.13
2018-07-26T09:13:19.285Z,1008.07
2018-07-26T09:14:18.395Z,1008.07
2018-07-26T09:15:18.330Z,1007.99
2018-07-26T09:16:18.323Z,1008.03
2018-07-26T09:17:18.343Z,1008.02
2018-07-26T09:18:18.256Z,1008.04
2018-07-26T09:19:18.314Z,1008.02
2018-07-26T09:20:18.293Z,1007.98
2018-07-26T09:21:18.265Z,1007.97
2018-07-26T09:22:18.261Z,1008.01
2018-07-26T09:23:18.245Z,1007.95
2018-07-26T09:24:18.277Z,1008.00
2018-07-26T09:25:18.230Z,1007.95
2018-07-26T09:26:18.283Z,1007.93
2018-07-26T09:27:18.207Z,1007.98
2018-07-26T09:28:18.201Z,1007.97
2018-07-26T09:29:18.216Z,1007.95
2018-07-26T09:30:18.178Z,1007.94
2018-07-26T09:31:18.169Z,1007.93
2018-07-26T09:32:18.190Z,1007.98
2018-07-26T09:33:18.189Z,1007.91
2018-07-26T09:34:18.263Z,1007.92
2018-07-26T09:35:18.135Z,1007.88
2018-07-26T09:36:18.120Z,1007.87
2018-07-26T09:37:18.104Z,1007.91
2018-07-26T09:38:18.846Z,1007.86
2018-07-26T09:39:18.066Z,1007.85
2018-07-26T09:40:18.034Z,1007.88
2018-07-26T09:41:18.064Z,1007.84
2018-07-26T09:42:18.144Z,1007.88
2018-07-26T09:43:18.063Z,1007.89
2018-07-26T09:44:18.095Z,1007.88
2018-07-26T09:45:18.044Z,1007.88
2018-07-26T09:46:18.011Z,1007.85
2018-07-26T09:47:18.043Z,1007.85
2018-07-26T09:48:17.954Z,1007.86
2018-07-26T09:49:18.012Z,1007.82
2018-07-26T09:50:17.990Z,1007.80
2018-07-26T09:51:17.961Z,1007.83
2018-07-26T09:52:17.951Z,1007.87
2018-07-26T09:53:17.948Z,1007.87
2018-07-26T09:54:17.964Z,1007.81
2018-07-26T09:55:17.929Z,1007.79
2018-07-26T09:56:18.863Z,1007.81
2018-07-26T09:57:17.920Z,1007.82
2018-07-26T09:58:17.902Z,1007.74
2018-07-26T09:59:17.923Z,1007.77
2018-07-26T10:00:17.908Z,1007.86
2018-07-26T10:01:17.865Z,1007.78
2018-07-26T10:02:17.860Z,1007.77
2018-07-26T10:03:17.882Z,1007.73
2018-07-26T10:04:17.859Z,1007.80
2018-07-26T10:05:17.824Z,1007.73
2018-07-26T10:06:17.815Z,1007.75
2018-07-26T10:07:17.806Z,1007.71
2018-07-26T10:08:17.789Z,1007.76
2018-07-26T10:09:17.848Z,1007.74
2018-07-26T10:10:17.771Z,1007.70
2018-07-26T10:11:17.786Z,1007.70
2018-07-26T10:12:17.757Z,1007.68
2018-07-26T10:13:17.751Z,1007.69
2018-07-26T10:14:17.895Z,1007.72
2018-07-26T10:15:17.729Z,1007.72
2018-07-26T10:16:17.704Z,1007.68
2018-07-26T10:17:17.696Z,1007.67
2018-07-26T10:18:17.694Z,1007.65
2018-07-26T10:19:17.725Z,1007.64
2018-07-26T10:20:17.699Z,1007.63
2018-07-26T10:21:17.655Z,1007.65
2018-07-26T10:22:17.649Z,1007.59
2018-07-26T10:23:17.639Z,1007.65
2018-07-26T10:24:17.608Z,1007.60
2018-07-26T10:25:17.572Z,1007.64
2018-07-26T10:26:17.604Z,1007.60
2018-07-26T10:27:17.597Z,1007.57
2018-07-26T10:28:17.591Z,1007.58
2018-07-26T10:29:17.613Z,1007.57
2018-07-26T10:30:17.565Z,1007.52
2018-07-26T10:31:17.643Z,1007.55
2018-07-26T10:32:17.546Z,1007.52
2018-07-26T10:33:17.579Z,1007.48
2018-07-26T10:34:17.524Z,1007.51
2018-07-26T10:35:17.598Z,1007.49
2018-07-26T10:36:17.535Z,1007.49
2018-07-26T10:37:17.518Z,1007.51
2018-07-26T10:38:17.498Z,1007.50
2018-07-26T10:39:17.538Z,1007.51
2018-07-26T10:40:17.499Z,1007.52
2018-07-26T10:41:17.463Z,1007.49
2018-07-26T10:42:17.451Z,1007.44
2018-07-26T10:43:17.403Z,1007.46
2018-07-26T10:44:17.422Z,1007.44
2018-07-26T10:45:17.451Z,1007.45
2018-07-26T10:46:17.404Z,1007.41
2018-07-26T10:47:17.403Z,1007.36
2018-07-26T10:48:17.392Z,1007.36
2018-07-26T10:49:17.380Z,1007.37
2018-07-26T10:50:17.426Z,1007.37
2018-07-26T10:51:17.353Z,1007.39
2018-07-26T10:52:17.339Z,1007.40
2018-07-26T10:53:17.301Z,1007.38
2018-07-26T10:54:17.323Z,1007.39
2018-07-26T10:55:17.335Z,1007.33
2018-07-26T10:56:17.320Z,1007.33
2018-07-26T10:57:17.351Z,1007.35
2018-07-26T10:58:17.291Z,1007.32
2018-07-26T10:59:17.275Z,1007.36
2018-07-26T11:00:17.325Z,1007.38
2018-07-26T11:01:17.254Z,1007.39
2018-07-26T11:02:17.265Z,1007.39
2018-07-26T11:03:17.232Z,1007.34
2018-07-26T11:04:17.242Z,1007.30
2018-07-26T11:05:17.242Z,1007.28
2018-07-26T11:06:17.200Z,1007.31
2018-07-26T11:07:17.197Z,1007.30
2018-07-26T11:08:17.181Z,1007.26
2018-07-26T11:09:17.168Z,1007.26
2018-07-26T11:10:17.181Z,1007.19
2018-07-26T11:11:17.207Z,1007.23
2018-07-26T11:12:17.168Z,1007.20
2018-07-26T11:13:17.136Z,1007.22
2018-07-26T11:14:17.171Z,1007.27
2018-07-26T11:15:17.194Z,1007.27
2018-07-26T11:16:17.111Z,1007.23
2018-07-26T11:17:17.095Z,1007.23
2018-07-26T11:18:17.045Z,1007.23
2018-07-26T11:19:17.066Z,1007.24
2018-07-26T11:20:17.076Z,1007.25
2018-07-26T11:21:17.085Z,1007.21
2018-07-26T11:22:17.056Z,1007.26
2018-07-26T11:23:17.028Z,1007.25
2018-07-26T11:24:16.990Z,1007.24
2018-07-26T11:25:17.058Z,1007.27
2018-07-26T11:26:17.004Z,1007.16
2018-07-26T11:27:16.997Z,1007.13
2018-07-26T11:28:17.069Z,1007.16
2018-07-26T11:29:16.971Z,1007.18
2018-07-26T11:30:17.061Z,1007.12
2018-07-26T11:31:16.957Z,1007.10
2018-07-26T11:32:16.957Z,1007.14
2018-07-26T11:33:16.936Z,1007.18
2018-07-26T11:34:16.888Z,1007.20
2018-07-26T11:35:17.041Z,1007.19
2018-07-26T11:36:16.907Z,1007.21
2018-07-26T11:37:16.895Z,1007.17
2018-07-26T11:38:16.878Z,1007.18
2018-07-26T11:39:16.865Z,1007.15
2018-07-26T11:40:16.880Z,1007.14
2018-07-26T11:41:16.847Z,1007.11
2018-07-26T11:42:16.849Z,1007.10
2018-07-26T11:43:16.857Z,1007.12
2018-07-26T11:44:16.826Z,1007.06
2018-07-26T11:45:16.836Z,1007.09
2018-07-26T11:46:16.801Z,1007.03
2018-07-26T11:47:16.791Z,1007.09
2018-07-26T11:48:16.779Z,1007.12
2018-07-26T11:49:16.778Z,1007.13
2018-07-26T11:50:16.791Z,1007.10
2018-07-26T11:51:16.766Z,1007.00
2018-07-26T11:52:17.375Z,1007.05
2018-07-26T11:53:16.731Z,1006.97
2018-07-26T11:54:16.723Z,1006.99
2018-07-26T11:55:16.740Z,1007.00
2018-07-26T11:56:16.701Z,1006.99
2018-07-26T11:57:16.693Z,1007.00
2018-07-26T11:58:16.679Z,1006.97
2018-07-26T11:59:16.666Z,1007.02
2018-07-26T12:00:16.716Z,1006.98
2018-07-26T12:01:16.658Z,1006.93
2018-07-26T12:02:16.603Z,1006.97
2018-07-26T12:03:16.649Z,1006.93
2018-07-26T12:04:16.620Z,1006.96
2018-07-26T12:05:16.711Z,1006.95